Time;durP1;ratioP1;P1;durP2;ratioP2;P2;SDS_P1;SDS_P2;PMS_P1;PMS_P2;Temp;Humidity;BMP_temperature;BMP_pressure;BME280_temperature;BME280_humidity;BME280_pressure;Samples;Min_cycle;Max_cycle;Signal;HPM_P1;HPM_P2
2024/01/25 00:00:30;;;;;;;49.47;24.40;;;;;;;1.89;71.19;99591.34;4909830;29;20047;-96
2024/01/25 00:02:57;;;;;;;41.67;23.55;;;;;;;1.93;71.07;99596.06;4926777;29;20058;-95
2024/01/25 00:05:22;;;;;;;40.28;23.58;;;;;;;1.91;71.04;99603.41;4912522;29;20099;-96
2024/01/25 00:07:48;;;;;;;44.83;25.20;;;;;;;1.83;71.29;99585.03;4909688;29;20071;-96
2024/01/25 00:10:16;;;;;;;41.42;23.40;;;;;;;1.76;71.46;99581.56;4911671;29;20031;-95
2024/01/25 00:12:42;;;;;;;41.17;24.00;;;;;;;1.92;71.54;99593.59;4911663;29;20118;-95
2024/01/25 00:15:09;;;;;;;39.20;22.88;;;;;;;1.84;71.17;99573.38;4911460;29;20027;-96
2024/01/25 00:17:36;;;;;;;42.63;24.75;;;;;;;1.78;71.41;99555.63;4928056;29;20520;-95
2024/01/25 00:20:04;;;;;;;36.83;23.23;;;;;;;1.77;70.99;99552.16;4910616;29;20032;-96
2024/01/25 00:22:30;;;;;;;45.00;24.00;;;;;;;1.88;71.09;99566.63;4942950;29;20036;-95
2024/01/25 00:24:56;;;;;;;41.47;22.67;;;;;;;1.79;71.32;99554.63;4927764;29;20405;-95
2024/01/25 00:27:24;;;;;;;45.10;25.40;;;;;;;1.92;71.47;99567.03;4911220;29;20126;-95
2024/01/25 00:29:51;;;;;;;40.35;24.73;;;;;;;1.81;72.06;99565.84;4926365;29;20054;-95
2024/01/25 00:32:17;;;;;;;47.65;25.10;;;;;;;1.76;71.54;99558.47;4911704;29;20047;-96
2024/01/25 00:34:44;;;;;;;37.70;22.10;;;;;;;1.77;71.40;99557.47;4926815;29;20604;-96
2024/01/25 00:37:10;;;;;;;36.45;22.98;;;;;;;1.94;71.03;99578.28;4944155;29;20023;-96
2024/01/25 00:39:36;;;;;;;41.58;23.55;;;;;;;1.91;71.38;99566.22;4911362;29;20043;-96
2024/01/25 00:42:06;;;;;;;43.05;23.75;;;;;;;1.94;71.55;99580.94;4911585;29;20032;-96
2024/01/25 00:44:33;;;;;;;41.15;23.92;;;;;;;1.85;71.22;99571.53;4912042;29;20031;-96
2024/01/25 00:47:00;;;;;;;41.17;24.27;;;;;;;2.02;70.97;99601.97;4910737;29;20046;-96
2024/01/25 00:49:26;;;;;;;39.42;22.25;;;;;;;2.02;71.25;99594.00;4911496;29;20069;-96
2024/01/25 00:51:58;;;;;;;41.08;23.35;;;;;;;1.94;71.27;99568.47;4925556;29;20043;-96
2024/01/25 00:54:26;;;;;;;39.35;19.88;;;;;;;1.89;71.41;99564.78;4925909;29;20039;-96
2024/01/25 00:56:54;;;;;;;33.38;19.42;;;;;;;1.86;71.27;99571.34;4927108;29;20051;-96
2024/01/25 00:59:24;;;;;;;35.05;19.50;;;;;;;1.91;71.14;99582.16;4941374;29;20522;-95
2024/01/25 01:01:52;;;;;;;41.17;22.00;;;;;;;1.87;71.35;99588.06;4942555;29;20038;-95
2024/01/25 01:04:19;;;;;;;41.60;22.17;;;;;;;1.81;71.21;99564.00;4926891;29;20063;-96
2024/01/25 01:06:47;;;;;;;41.33;24.60;;;;;;;1.84;70.94;99554.78;4925523;29;20040;-96
2024/01/25 01:09:13;;;;;;;36.15;21.33;;;;;;;1.83;70.73;99537.25;4910396;29;20067;-94
2024/01/25 01:11:39;;;;;;;40.72;23.48;;;;;;;1.90;70.94;99553.97;4910003;29;20059;-96
2024/01/25 01:14:05;;;;;;;39.15;23.65;;;;;;;2.01;71.32;99560.47;4924432;29;20028;-95
2024/01/25 01:16:35;;;;;;;39.33;22.88;;;;;;;2.00;71.00;99558.84;4909981;29;20024;-95
2024/01/25 01:19:06;;;;;;;38.28;21.63;;;;;;;1.82;70.93;99544.38;4926132;29;20060;-96
2024/01/25 01:21:35;;;;;;;34.55;19.55;;;;;;;1.79;70.97;99552.75;4909668;29;20042;-95
2024/01/25 01:24:03;;;;;;;36.70;19.63;;;;;;;1.67;71.46;99542.97;4909868;29;20032;-96
2024/01/25 01:26:30;;;;;;;32.97;19.42;;;;;;;1.71;71.28;99533.59;4940584;29;20071;-96
2024/01/25 01:28:56;;;;;;;39.30;21.92;;;;;;;1.66;71.90;99530.72;4924932;29;20031;-95
2024/01/25 01:31:22;;;;;;;37.72;19.02;;;;;;;1.54;71.56;99533.22;4909176;29;20399;-95
2024/01/25 01:33:48;;;;;;;38.47;21.38;;;;;;;1.60;71.75;99533.19;4939303;29;20040;-96
2024/01/25 01:36:15;;;;;;;39.10;21.38;;;;;;;1.65;71.42;99535.22;4909453;29;20131;-96
2024/01/25 01:38:42;;;;;;;31.85;19.75;;;;;;;1.73;71.44;99542.97;4940754;29;20040;-95
2024/01/25 01:41:12;;;;;;;31.73;18.90;;;;;;;1.71;71.62;99531.75;4941077;29;20525;-96
2024/01/25 01:43:40;;;;;;;36.22;20.08;;;;;;;1.71;71.01;99531.75;4941903;29;20031;-95
2024/01/25 01:46:20;;;;;;;35.67;19.73;;;;;;;1.77;71.38;99538.88;4909758;29;20035;-95
2024/01/25 01:48:46;;;;;;;33.60;19.70;;;;;;;1.85;71.36;99537.03;4941570;29;20063;-95
2024/01/25 01:51:13;;;;;;;30.67;18.20;;;;;;;1.84;71.26;99514.16;4908430;29;20028;-94
2024/01/25 01:53:39;;;;;;;30.23;16.80;;;;;;;1.86;71.19;99512.13;4909608;29;20063;-95
2024/01/25 01:56:07;;;;;;;34.35;18.25;;;;;;;1.85;70.79;99505.16;4907407;29;20115;-95
2024/01/25 01:58:33;;;;;;;37.15;18.92;;;;;;;1.94;70.55;99504.72;4909824;29;20044;-96
2024/01/25 02:00:59;;;;;;;35.47;20.77;;;;;;;1.85;70.91;99473.31;4908831;29;20090;-96
2024/01/25 02:03:25;;;;;;;31.75;19.33;;;;;;;1.91;71.13;99496.34;4909066;29;20095;-95
2024/01/25 02:05:51;;;;;;;36.10;21.20;;;;;;;1.97;70.98;99503.50;4926274;29;20032;-95
2024/01/25 02:08:17;;;;;;;42.58;21.77;;;;;;;2.05;71.08;99503.25;4909372;29;20063;-95
2024/01/25 02:10:43;;;;;;;42.90;21.75;;;;;;;2.09;70.92;99501.00;4925306;29;20063;-95
2024/01/25 02:13:09;;;;;;;37.75;21.83;;;;;;;2.00;70.98;99487.97;4911023;29;20032;-96
2024/01/25 02:15:39;;;;;;;40.50;21.73;;;;;;;1.97;71.32;99482.25;4908455;29;20067;-95
2024/01/25 02:18:07;;;;;;;41.53;23.73;;;;;;;2.00;71.19;99476.53;4925755;29;20073;-96
2024/01/25 02:20:34;;;;;;;32.65;20.05;;;;;;;2.19;70.46;99499.53;4924383;29;20039;-95
2024/01/25 02:23:01;;;;;;;38.78;21.65;;;;;;;2.20;70.14;99485.25;4908788;29;20122;-96
2024/01/25 02:25:27;;;;;;;36.72;22.20;;;;;;;2.22;70.34;99482.34;4940214;29;20511;-96
2024/01/25 02:27:54;;;;;;;36.85;22.35;;;;;;;2.23;70.39;99476.84;4925235;29;20035;-96
2024/01/25 02:30:20;;;;;;;38.85;20.95;;;;;;;2.27;69.76;99481.75;4909622;29;20038;-96
2024/01/25 02:32:47;;;;;;;40.30;22.90;;;;;;;2.29;69.88;99475.19;4907788;29;20024;-95
2024/01/25 02:35:12;;;;;;;35.53;21.38;;;;;;;2.12;70.27;99443.00;4909227;29;20028;-95
2024/01/25 02:37:38;;;;;;;43.00;23.63;;;;;;;2.25;70.42;99459.88;4910635;29;20118;-96
2024/01/25 02:40:08;;;;;;;39.17;22.00;;;;;;;2.15;70.32;99452.38;4913347;29;20038;-96
2024/01/25 02:42:37;;;;;;;41.70;22.05;;;;;;;2.10;70.19;99457.50;4929364;29;20031;-95
2024/01/25 02:45:03;;;;;;;39.60;22.73;;;;;;;2.12;70.26;99461.56;4929314;29;20019;-96
2024/01/25 02:47:29;;;;;;;40.80;21.92;;;;;;;2.01;70.63;99444.47;4912932;29;20071;-96
2024/01/25 02:49:55;;;;;;;33.33;20.27;;;;;;;2.01;70.23;99441.81;4913698;29;20043;-95
2024/01/25 02:52:21;;;;;;;34.55;21.35;;;;;;;1.91;70.35;99451.22;4928384;29;20028;-96
2024/01/25 02:54:46;;;;;;;36.50;21.13;;;;;;;1.90;70.13;99447.75;4911023;29;20078;-95
2024/01/25 02:57:13;;;;;;;34.22;19.90;;;;;;;1.87;70.61;99444.69;4929020;29;20062;-96
2024/01/25 02:59:38;;;;;;;35.15;21.23;;;;;;;1.85;70.67;99444.94;4912272;29;20016;-96
2024/01/25 03:02:04;;;;;;;34.92;20.38;;;;;;;1.91;70.41;99457.38;4913176;29;20043;-96
2024/01/25 03:04:30;;;;;;;34.25;20.17;;;;;;;1.78;71.46;99444.94;4911812;29;20022;-94
2024/01/25 03:06:56;;;;;;;39.92;20.83;;;;;;;1.79;71.32;99432.50;4927744;29;20035;-96
2024/01/25 03:09:23;;;;;;;35.83;20.42;;;;;;;1.93;71.30;99449.19;4912778;29;20504;-96
2024/01/25 03:11:49;;;;;;;34.03;20.67;;;;;;;1.84;71.41;99431.88;4913252;29;20103;-95
2024/01/25 03:14:15;;;;;;;38.35;21.05;;;;;;;1.83;71.32;99441.69;4941739;29;20520;-95
2024/01/25 03:16:41;;;;;;;37.63;21.65;;;;;;;1.91;71.42;99448.56;4912376;29;20059;-95
2024/01/25 03:19:06;;;;;;;35.85;19.67;;;;;;;1.88;71.32;99449.00;4912124;29;20024;-96
2024/01/25 03:21:33;;;;;;;34.75;19.33;;;;;;;1.82;71.36;99434.72;4927242;29;20032;-94
2024/01/25 03:23:59;;;;;;;34.47;18.92;;;;;;;1.87;71.15;99444.69;4927808;29;20024;-96
2024/01/25 03:26:28;;;;;;;32.28;19.35;;;;;;;1.86;71.52;99424.50;4911656;29;20035;-95
2024/01/25 03:28:53;;;;;;;31.02;18.80;;;;;;;1.88;71.77;99431.22;4928200;29;20489;-96
2024/01/25 03:31:19;;;;;;;34.60;20.10;;;;;;;1.86;73.69;99414.69;4927485;29;20107;-96
2024/01/25 03:33:45;;;;;;;34.33;19.33;;;;;;;2.09;73.14;99426.66;4911696;29;20024;-96
2024/01/25 03:36:13;;;;;;;24.50;14.40;;;;;;;2.20;73.95;99423.31;4912785;29;20031;-96
2024/01/25 03:38:40;;;;;;;27.80;16.00;;;;;;;2.30;74.17;99421.00;4911341;29;20034;-96
2024/01/25 03:41:06;;;;;;;22.13;12.73;;;;;;;2.48;74.59;99427.47;4927098;29;20027;-95
2024/01/25 03:43:32;;;;;;;16.38;9.27;;;;;;;2.67;75.60;99426.50;4942888;29;20029;-94
2024/01/25 03:45:58;;;;;;;15.75;8.73;;;;;;;2.82;75.62;99418.22;4926885;29;20067;-95
2024/01/25 03:48:25;;;;;;;7.00;4.70;;;;;;;2.99;76.99;99419.31;4916338;29;20066;-96
2024/01/25 03:50:50;;;;;;;12.85;6.25;;;;;;;3.07;76.02;99420.06;4917977;28;20032;-96
2024/01/25 03:53:17;;;;;;;7.00;4.28;;;;;;;3.45;76.46;99449.19;4933695;29;20024;-96
2024/01/25 04:10:15;;;;;;;2.95;1.17;;;;;;;6.40;65.26;99447.88;4974684;23;20059;-96
2024/01/25 04:12:55;;;;;;;2.08;1.30;;;;;;;6.40;64.64;99421.13;5088165;23;20440;-96
2024/01/25 04:15:40;;;;;;;1.95;1.33;;;;;;;6.68;63.75;99446.22;4956120;29;20042;-96
2024/01/25 04:18:06;;;;;;;3.10;1.15;;;;;;;6.82;62.65;99439.50;4927003;29;20011;-95
2024/01/25 04:20:34;;;;;;;2.35;1.20;;;;;;;6.93;62.08;99435.16;4919871;29;20020;-96
2024/01/25 04:23:00;;;;;;;2.65;1.30;;;;;;;7.09;61.85;99458.41;4940589;29;20028;-96
2024/01/25 04:25:29;;;;;;;3.28;1.67;;;;;;;7.17;61.25;99443.81;4920218;28;20023;-96
2024/01/25 04:28:01;;;;;;;3.22;1.63;;;;;;;7.29;60.84;99455.25;4935362;29;20056;-96
2024/01/25 04:30:27;;;;;;;7.47;1.42;;;;;;;7.40;59.68;99460.78;4935417;29;20023;-96
2024/01/25 04:32:53;;;;;;;4.70;1.27;;;;;;;7.43;60.07;99466.47;4917061;29;20039;-96
2024/01/25 04:35:21;;;;;;;2.90;1.48;;;;;;;7.59;59.11;99472.84;4917983;29;20086;-95
2024/01/25 04:38:05;;;;;;;2.50;1.13;;;;;;;7.55;59.16;99454.81;4916818;29;20030;-96
2024/01/25 04:40:30;;;;;;;3.75;1.17;;;;;;;7.59;59.15;99472.03;4916518;28;20036;-96
2024/01/25 04:42:59;;;;;;;2.55;1.40;;;;;;;7.59;58.73;99459.44;4919868;29;20087;-95
2024/01/25 04:45:25;;;;;;;4.15;1.80;;;;;;;7.64;58.71;99466.75;4949838;29;20035;-96
2024/01/25 04:47:50;;;;;;;4.72;2.63;;;;;;;7.64;58.29;99458.72;4916806;29;20118;-96
2024/01/25 04:50:16;;;;;;;3.42;2.28;;;;;;;7.65;58.32;99457.66;4917764;29;20179;-96
2024/01/25 04:52:45;;;;;;;2.55;1.38;;;;;;;7.72;58.64;99462.81;4922574;29;20024;-96
2024/01/25 04:55:22;;;;;;;3.92;1.70;;;;;;;7.62;58.50;99467.00;4924748;29;20114;-96
2024/01/25 04:57:49;;;;;;;3.60;1.50;;;;;;;7.70;58.90;99487.22;4934761;29;20040;-96
2024/01/25 05:00:16;;;;;;;3.75;1.77;;;;;;;7.53;59.05;99475.69;4898845;29;20047;-96
2024/01/25 05:02:43;;;;;;;3.28;2.00;;;;;;;7.54;58.99;99469.28;4895386;29;20463;-96
2024/01/25 05:05:09;;;;;;;3.30;2.03;;;;;;;7.63;58.72;99489.25;4897765;29;20441;-96
2024/01/25 05:07:35;;;;;;;1.98;1.30;;;;;;;7.65;58.81;99469.16;4912506;29;20051;-96
2024/01/25 05:10:04;;;;;;;2.50;1.40;;;;;;;7.61;59.11;99465.38;4898198;29;20132;-96
2024/01/25 05:12:29;;;;;;;3.22;1.73;;;;;;;7.70;59.15;99484.53;4912856;29;20032;-95
2024/01/25 05:14:55;;;;;;;3.15;1.60;;;;;;;7.71;58.98;99478.09;4911974;29;20066;-95
2024/01/25 05:17:44;;;;;;;4.82;1.88;;;;;;;7.67;59.35;99474.28;4912393;29;20039;-96
2024/01/25 05:20:17;;;;;;;3.28;1.95;;;;;;;7.63;59.73;99490.03;4899656;29;20047;-96
2024/01/25 05:22:46;;;;;;;2.78;1.48;;;;;;;7.70;59.25;99492.56;4896495;29;20032;-95
2024/01/25 05:25:15;;;;;;;3.50;1.60;;;;;;;7.79;59.13;99485.72;4890763;29;20118;-96
2024/01/25 05:27:41;;;;;;;3.97;1.77;;;;;;;7.80;58.75;99503.44;4906929;29;20028;-91
2024/01/25 05:30:08;;;;;;;3.03;1.95;;;;;;;7.92;59.36;99514.03;4892850;29;20044;-91
2024/01/25 05:32:33;;;;;;;4.30;2.47;;;;;;;7.82;58.88;99511.22;4885360;29;20024;-91
2024/01/25 05:34:59;;;;;;;5.78;2.00;;;;;;;7.94;58.96;99522.66;4925141;29;20036;-96
2024/01/25 05:37:25;;;;;;;4.10;1.98;;;;;;;7.85;58.59;99495.44;4895484;29;20067;-96
2024/01/25 05:39:53;;;;;;;4.00;2.03;;;;;;;7.85;58.88;99500.81;4897086;29;20126;-95
2024/01/25 05:42:19;;;;;;;2.40;1.95;;;;;;;7.88;58.45;99507.53;4895073;29;20012;-94
2024/01/25 05:44:47;;;;;;;3.17;1.98;;;;;;;7.92;58.66;99511.34;4887743;29;20041;-96
2024/01/25 05:47:13;;;;;;;3.08;1.92;;;;;;;8.06;58.22;99519.84;4879858;29;20472;-94
2024/01/25 05:50:03;;;;;;;3.20;1.80;;;;;;;7.99;58.14;99506.63;4912500;29;20056;-95
2024/01/25 05:52:29;;;;;;;2.92;1.90;;;;;;;8.04;58.65;99517.41;4918032;29;20442;-95
2024/01/25 05:55:08;;;;;;;6.45;3.85;;;;;;;8.07;58.12;99514.25;4927689;29;20046;-95
2024/01/25 05:57:36;;;;;;;7.30;2.08;;;;;;;8.33;57.41;99536.03;4890027;29;20041;-96
2024/01/25 06:00:08;;;;;;;4.47;1.88;;;;;;;8.20;57.82;99518.44;4891337;29;20033;-96
2024/01/25 06:02:36;;;;;;;6.32;2.13;;;;;;;8.11;58.00;99501.13;4906378;29;20060;-95
2024/01/25 06:05:06;;;;;;;4.70;1.83;;;;;;;8.41;57.67;99532.13;4892675;29;20096;-96
2024/01/25 06:08:08;;;;;;;5.15;1.80;;;;;;;8.49;57.06;99529.00;5142123;23;20309;-95
2024/01/25 06:10:33;;;;;;;6.03;3.67;;;;;;;8.49;56.65;99526.34;4943463;29;20031;-95
2024/01/25 06:12:59;;;;;;;5.93;2.58;;;;;;;8.47;56.61;99515.84;4941175;29;20031;-95
2024/01/25 06:15:25;;;;;;;4.72;2.25;;;;;;;8.48;56.24;99514.75;4924936;29;20063;-96
2024/01/25 06:21:05;;;;;;;2.97;1.83;;;;;;;8.49;55.71;99504.88;4856194;29;20034;-96
2024/01/25 06:23:46;;;;;;;3.63;1.95;;;;;;;8.62;55.28;99515.19;4918553;28;20032;-96
2024/01/25 06:26:18;;;;;;;3.42;2.08;;;;;;;8.66;55.02;99527.06;4939496;29;20038;-96
2024/01/25 06:28:49;;;;;;;5.32;2.40;;;;;;;8.55;55.04;99497.66;4878278;29;20187;-95
2024/01/25 06:37:10;;;;;;;5.30;2.78;;;;;;;8.69;54.69;99526.56;5413652;23;20063;-94
2024/01/25 06:39:38;;;;;;;9.75;3.35;;;;;;;8.68;54.74;99516.88;4951884;23;20050;-95
2024/01/25 06:42:04;;;;;;;5.28;2.65;;;;;;;8.62;54.36;99517.88;4918992;29;20066;-96
2024/01/25 06:44:33;;;;;;;6.47;2.63;;;;;;;8.55;54.70;99503.03;4919074;29;20046;-96
2024/01/25 06:47:05;;;;;;;5.50;2.80;;;;;;;8.52;54.89;99517.75;4947349;29;20054;-95
2024/01/25 06:49:32;;;;;;;3.67;2.00;;;;;;;8.69;54.73;99553.41;4916480;29;20065;-96
2024/01/25 06:51:58;;;;;;;7.28;3.25;;;;;;;8.49;55.14;99513.72;4936197;29;20124;-95
2024/01/25 06:54:36;;;;;;;5.20;3.05;;;;;;;8.50;54.88;99523.38;4917550;28;20031;-96
2024/01/25 06:57:04;;;;;;;4.18;2.25;;;;;;;8.59;55.04;99525.63;4906297;29;20092;-96
2024/01/25 06:59:30;;;;;;;3.47;2.17;;;;;;;8.62;54.81;99509.81;4916824;29;20028;-95
2024/01/25 07:01:56;;;;;;;6.68;2.78;;;;;;;8.66;54.94;99500.22;4918462;29;20039;-95
2024/01/25 07:04:25;;;;;;;8.18;2.40;;;;;;;8.88;54.92;99532.41;4913301;29;20035;-96
2024/01/25 07:07:20;;;;;;;7.43;2.50;;;;;;;8.89;55.02;99519.78;4912620;29;20024;-96
2024/01/25 07:12:20;;;;;;;4.68;2.25;;;;;;;8.96;55.03;99533.00;4932898;29;20056;-96
2024/01/25 07:15:11;;;;;;;5.65;2.97;;;;;;;9.06;54.53;99533.88;4901874;29;20044;-96
2024/01/25 07:27:53;;;;;;;5.43;2.30;;;;;;;9.25;54.24;99520.09;4876420;29;20062;-96
2024/01/25 07:30:25;;;;;;;5.55;2.40;;;;;;;9.34;54.35;99518.56;4840838;29;20041;-96
2024/01/25 07:32:51;;;;;;;7.05;2.70;;;;;;;9.60;54.06;99561.75;4876563;29;20037;-96
2024/01/25 07:35:20;;;;;;;7.28;2.60;;;;;;;9.65;53.85;99554.56;4830273;29;20030;-96
2024/01/25 07:37:46;;;;;;;6.88;2.17;;;;;;;9.58;53.49;99551.25;4848198;29;20186;-96
2024/01/25 07:41:02;;;;;;;5.03;2.50;;;;;;;9.54;53.44;99541.28;4861011;29;20038;-96
2024/01/25 07:44:20;;;;;;;35.25;24.52;;;;;;;9.62;53.53;99538.91;4832197;29;20062;-96
2024/01/25 07:47:00;;;;;;;6.38;3.00;;;;;;;9.69;53.49;99555.66;4841272;29;20586;-95
2024/01/25 07:49:26;;;;;;;8.68;3.28;;;;;;;9.85;53.82;99585.34;4880569;29;20046;-96
2024/01/25 07:52:11;;;;;;;4.50;2.58;;;;;;;9.79;53.10;99546.84;4885742;29;20021;-96
2024/01/25 07:54:40;;;;;;;8.20;2.75;;;;;;;9.95;52.60;99560.41;4890059;29;20041;-96
2024/01/25 07:59:41;;;;;;;5.10;2.35;;;;;;;9.97;51.82;99558.25;5488717;23;20071;-95
2024/01/25 08:02:07;;;;;;;5.78;2.33;;;;;;;10.03;51.82;99558.03;4895286;29;20028;-95
2024/01/25 08:04:33;;;;;;;7.80;3.05;;;;;;;10.12;51.91;99569.91;4898549;29;20051;-96
2024/01/25 08:21:04;;;;;;;7.25;2.95;;;;;;;10.23;50.78;99576.16;5824713;23;20047;-96
2024/01/25 08:26:08;;;;;;;104.72;56.65;;;;;;;10.37;51.02;99573.81;5269903;23;20518;-95
2024/01/25 08:28:35;;;;;;;9.05;4.47;;;;;;;10.35;50.22;99550.94;4931667;29;20028;-95
2024/01/25 08:31:00;;;;;;;4.13;2.20;;;;;;;10.45;50.20;99549.09;4916509;29;20020;-96
2024/01/25 08:33:29;;;;;;;5.60;2.55;;;;;;;10.56;50.67;99568.00;4915218;29;20566;-96
2024/01/25 08:35:55;;;;;;;7.35;2.78;;;;;;;10.60;49.57;99553.72;4917716;29;20032;-96
2024/01/25 08:38:23;;;;;;;11.05;2.25;;;;;;;10.58;48.43;99547.00;4919735;29;20100;-94
2024/01/25 08:40:58;;;;;;;5.13;2.75;;;;;;;10.58;49.12;99544.31;4914386;29;20027;-96
2024/01/25 08:43:46;;;;;;;7.03;2.92;;;;;;;10.69;49.12;99573.69;4917275;29;20032;-96
2024/01/25 08:46:19;;;;;;;6.07;3.17;;;;;;;10.51;48.29;99518.44;4899191;29;20099;-95
2024/01/25 09:54:17;;;;;;;6.82;2.67;;;;;;;11.11;45.50;99532.31;4931244;29;20063;-96
2024/01/25 09:59:35;;;;;;;22.20;3.60;;;;;;;10.92;45.87;99498.88;5330471;23;20063;-96
2024/01/25 10:07:43;;;;;;;7.13;2.25;;;;;;;10.96;45.84;99499.97;4930754;29;20056;-95
2024/01/25 10:10:17;;;;;;;6.82;2.50;;;;;;;11.03;46.24;99513.16;4950204;29;20064;-94
2024/01/25 10:20:36;;;;;;;104.03;63.03;;;;;;;11.12;46.00;99509.69;4967687;23;20063;-96
2024/01/25 10:23:02;;;;;;;11.27;4.03;;;;;;;11.21;45.83;99501.88;4911201;29;20032;-95
2024/01/25 10:25:37;;;;;;;9.68;2.40;;;;;;;11.20;45.09;99497.53;4912664;29;20020;-96
2024/01/25 10:34:12;;;;;;;19.58;4.18;;;;;;;11.48;45.30;99498.88;5215972;23;20056;-96
2024/01/25 10:36:41;;;;;;;8.50;2.50;;;;;;;11.31;44.68;99483.00;4915295;29;20418;-94
2024/01/25 10:42:22;;;;;;;7.15;2.50;;;;;;;11.25;45.45;99478.69;5551798;23;20044;-95
2024/01/25 10:44:54;;;;;;;11.95;2.38;;;;;;;11.53;45.48;99506.16;4953683;29;20039;-96
2024/01/25 10:48:27;;;;;;;9.98;3.13;;;;;;;11.46;44.66;99489.47;4951380;29;20087;-96
2024/01/25 10:51:18;;;;;;;6.63;2.15;;;;;;;11.32;44.86;99500.78;4934761;29;20036;-96
2024/01/25 11:00:31;;;;;;;47.73;27.43;;;;;;;11.37;45.44;99480.28;4898571;29;20055;-96
2024/01/25 11:02:57;;;;;;;9.63;3.20;;;;;;;11.30;44.86;99478.66;4870048;29;20109;-95
2024/01/25 11:05:41;;;;;;;12.00;3.30;;;;;;;11.55;45.00;99503.19;4854411;29;20060;-96
2024/01/25 11:08:20;;;;;;;8.05;2.50;;;;;;;11.31;44.52;99474.09;4939384;23;20069;-96
2024/01/25 11:10:52;;;;;;;14.20;3.08;;;;;;;11.38;45.02;99471.94;5174584;23;20502;-95
2024/01/25 11:13:23;;;;;;;10.05;2.97;;;;;;;11.39;45.52;99492.41;4882194;29;20029;-95
2024/01/25 11:15:58;;;;;;;14.02;2.60;;;;;;;11.33;44.89;99445.78;4900209;29;20033;-96
2024/01/25 11:29:59;;;;;;;7.63;2.90;;;;;;;11.64;43.92;99453.00;4931189;29;20119;-96
2024/01/25 11:32:32;;;;;;;5.72;2.35;;;;;;;11.50;43.50;99448.19;4917266;29;20288;-94
2024/01/25 11:46:38;;;;;;;;;;;;;;;;;;;;;
2024/01/25 11:59:35;;;;;;;7.05;2.25;;;;;;;11.13;44.34;99397.31;4932185;29;20059;-96
2024/01/25 12:02:00;;;;;;;7.55;2.65;;;;;;;11.24;44.69;99406.19;4899509;29;20038;-96
2024/01/25 12:04:34;;;;;;;7.68;2.40;;;;;;;11.27;43.70;99411.03;4899813;29;20119;-96
2024/01/25 12:17:45;;;;;;;17.38;3.80;;;;;;;11.30;43.22;99384.31;5107011;23;20151;-93
2024/01/25 12:20:11;;;;;;;11.10;2.55;;;;;;;11.47;42.58;99400.19;4899999;29;20037;-95
2024/01/25 12:22:40;;;;;;;9.38;2.85;;;;;;;11.55;43.19;99379.94;4889783;29;20051;-92
2024/01/25 12:25:13;;;;;;;6.68;2.55;;;;;;;11.68;43.18;99383.94;4913299;29;20032;-93
2024/01/25 12:27:41;;;;;;;10.50;2.60;;;;;;;11.57;43.61;99383.19;4896830;29;20038;-92
2024/01/25 12:30:15;;;;;;;9.70;2.85;;;;;;;11.68;43.31;99384.78;4926685;29;20066;-96
2024/01/25 12:32:40;;;;;;;10.35;3.47;;;;;;;11.75;43.21;99381.78;4904476;29;20137;-96
2024/01/25 12:35:12;;;;;;;5.63;2.53;;;;;;;11.80;42.85;99376.34;4917547;29;20031;-93
2024/01/25 12:37:38;;;;;;;6.32;2.70;;;;;;;11.85;42.41;99378.22;4917910;29;20046;-96
2024/01/25 12:40:09;;;;;;;9.95;3.30;;;;;;;11.68;42.40;99387.47;4937569;29;20032;-96
2024/01/25 12:42:59;;;;;;;6.97;3.17;;;;;;;11.69;42.88;99399.06;4933104;29;20032;-96
2024/01/25 12:45:49;;;;;;;9.57;3.35;;;;;;;11.39;42.21;99376.47;4906601;29;20047;-96
2024/01/25 12:48:44;;;;;;;6.93;2.15;;;;;;;11.11;43.03;99365.22;4936509;29;20023;-96
2024/01/25 13:12:48;;;;;;;10.90;3.38;;;;;;;10.61;44.65;99401.88;5479759;23;20022;-96
2024/01/25 13:15:21;;;;;;;5.32;2.72;;;;;;;10.37;44.54;99353.13;4925202;29;20039;-95
2024/01/25 13:56:50;;;;;;;12.30;3.03;;;;;;;10.48;45.45;99353.97;5435323;23;20019;-96
2024/01/25 14:01:53;;;;;;;7.78;2.65;;;;;;;10.34;45.80;99344.78;5489048;23;20026;-96
2024/01/25 14:27:12;;;;;;;7.45;2.58;;;;;;;9.89;45.74;99371.28;5919616;23;20068;-96
2024/01/25 14:29:40;;;;;;;7.47;2.35;;;;;;;9.94;45.77;99371.31;4902085;29;20072;-96
2024/01/25 14:51:15;;;;;;;11.38;2.90;;;;;;;9.86;45.38;99399.53;5409682;23;20059;-96
2024/01/25 14:54:07;;;;;;;8.07;2.60;;;;;;;9.98;45.47;99412.75;4929016;29;20038;-96
2024/01/25 14:56:33;;;;;;;10.35;2.92;;;;;;;9.95;45.44;99426.72;4927588;29;20032;-96
2024/01/25 15:19:51;;;;;;;8.05;3.20;;;;;;;9.64;45.69;99423.06;5784486;23;20047;-95
2024/01/25 15:22:20;;;;;;;8.90;3.03;;;;;;;9.50;45.75;99412.78;4923212;29;20068;-96
2024/01/25 15:24:48;;;;;;;10.63;4.22;;;;;;;9.55;46.09;99411.22;4906750;29;20043;-96
2024/01/25 15:57:57;;;;;;;11.55;4.70;;;;;;;9.07;48.30;99411.97;5675563;23;20032;-96
2024/01/25 16:00:53;;;;;;;10.90;4.32;;;;;;;9.15;48.92;99434.88;4943181;29;20066;-96
2024/01/25 16:12:16;;;;;;;18.50;4.38;;;;;;;9.06;49.10;99453.31;5150844;23;20059;-96
2024/01/25 16:14:45;;;;;;;11.02;4.47;;;;;;;8.97;48.43;99436.06;5117401;23;20120;-95
2024/01/25 16:17:31;;;;;;;14.13;5.00;;;;;;;8.88;48.53;99425.00;4902858;29;20032;-95
2024/01/25 16:20:10;;;;;;;18.50;5.13;;;;;;;8.96;49.08;99445.16;4905671;29;20104;-96
2024/01/25 16:22:42;;;;;;;13.13;5.15;;;;;;;9.10;48.35;99467.84;4917929;29;20099;-95
2024/01/25 16:28:38;;;;;;;19.10;5.47;;;;;;;8.95;48.86;99458.88;4917632;29;20063;-96
2024/01/25 16:31:32;;;;;;;8.68;4.03;;;;;;;9.04;48.83;99493.03;4888678;29;20173;-96
2024/01/25 16:48:31;;;;;;;6.97;3.45;;;;;;;9.38;47.53;99478.53;5079397;23;20055;-96
2024/01/25 16:51:01;;;;;;;14.13;3.97;;;;;;;9.25;47.45;99480.59;4923251;29;20036;-96
2024/01/25 16:53:27;;;;;;;10.70;4.10;;;;;;;9.33;47.25;99475.81;4937604;29;20075;-96
2024/01/25 16:55:58;;;;;;;11.48;3.80;;;;;;;9.39;46.80;99498.97;4934202;29;20069;-96
2024/01/25 16:58:24;;;;;;;22.13;5.22;;;;;;;9.40;47.11;99487.97;4916077;29;20614;-96
2024/01/25 17:03:18;;;;;;;8.38;3.00;;;;;;;9.28;45.98;99484.66;4948244;28;20083;-96
2024/01/25 17:05:44;;;;;;;10.85;3.22;;;;;;;9.40;46.08;99490.66;4932138;29;20039;-96
2024/01/25 17:08:09;;;;;;;8.80;3.83;;;;;;;9.25;46.26;99487.84;4949245;29;20036;-95
2024/01/25 17:10:35;;;;;;;13.73;3.90;;;;;;;9.39;46.56;99507.84;4945185;29;20500;-96
2024/01/25 17:13:01;;;;;;;10.10;3.58;;;;;;;9.51;46.29;99516.53;4916711;29;20024;-96
2024/01/25 17:15:34;;;;;;;16.83;5.95;;;;;;;9.45;45.72;99509.50;4935768;29;20043;-96
2024/01/25 17:18:01;;;;;;;9.68;3.70;;;;;;;9.38;46.14;99505.41;4920010;29;20039;-96
2024/01/25 17:20:27;;;;;;;12.45;5.00;;;;;;;9.27;45.97;99491.09;4935601;29;20023;-96
2024/01/25 17:22:54;;;;;;;102.38;57.58;;;;;;;9.10;46.23;99478.59;4918913;29;20072;-96
2024/01/25 17:25:19;;;;;;;12.35;4.65;;;;;;;9.19;46.77;99494.25;4915529;29;20063;-95
2024/01/25 17:27:45;;;;;;;9.73;3.42;;;;;;;9.24;46.71;99502.38;4947750;29;20028;-96
2024/01/25 17:30:11;;;;;;;7.70;3.42;;;;;;;9.18;45.91;99480.00;4929340;29;20039;-95
2024/01/25 17:32:37;;;;;;;12.70;4.75;;;;;;;9.12;46.43;99491.78;4912062;29;20039;-95
2024/01/25 17:35:15;;;;;;;20.55;6.65;;;;;;;9.09;45.94;99485.03;4929266;29;20470;-96
2024/01/25 17:40:10;;;;;;;10.90;5.30;;;;;;;9.09;46.32;99493.09;4927831;29;20044;-96
2024/01/25 17:42:36;;;;;;;12.80;4.07;;;;;;;9.20;46.59;99507.44;4912879;29;20075;-96
2024/01/25 17:45:02;;;;;;;11.85;4.07;;;;;;;9.07;46.51;99489.06;4896317;29;20020;-96
2024/01/25 17:47:27;;;;;;;9.05;3.42;;;;;;;9.10;46.91;99508.13;4896036;29;20034;-95
2024/01/25 17:49:53;;;;;;;11.10;3.85;;;;;;;9.06;47.29;99492.78;4895741;29;20034;-94
2024/01/25 17:52:19;;;;;;;15.10;4.20;;;;;;;8.86;47.89;99493.41;4895351;29;20107;-95
2024/01/25 17:54:44;;;;;;;8.13;2.95;;;;;;;8.79;47.83;99488.25;4893274;29;20016;-96
2024/01/25 17:57:10;;;;;;;8.45;3.25;;;;;;;8.86;47.36;99482.66;4895781;29;20039;-96
2024/01/25 17:59:37;;;;;;;7.05;3.20;;;;;;;8.98;47.58;99485.22;4896487;29;20130;-96
2024/01/25 18:02:06;;;;;;;7.10;3.67;;;;;;;8.88;48.43;99505.53;4897547;29;20036;-96
2024/01/25 18:04:32;;;;;;;8.77;3.70;;;;;;;8.88;48.46;99492.13;4896079;29;20091;-94
2024/01/25 18:07:01;;;;;;;9.85;4.15;;;;;;;8.84;48.15;99492.84;4897738;29;20034;-96
2024/01/25 18:12:48;;;;;;;7.75;3.42;;;;;;;8.95;49.20;99497.28;4929933;29;20063;-96
2024/01/25 18:18:36;;;;;;;9.38;3.47;;;;;;;8.76;49.30;99491.47;4928309;29;20045;-95